createdAt,value
2023-01-18T00:03:43.863Z,97642.94
2023-01-18T00:08:45.542Z,97648.31
2023-01-18T00:13:48.131Z,97638.69
2023-01-18T00:18:54.341Z,97627.50
2023-01-18T00:23:56.823Z,97628.44
2023-01-18T00:28:58.453Z,97637.28
2023-01-18T00:34:00.106Z,97633.22
2023-01-18T00:39:01.814Z,97632.38
2023-01-18T00:44:03.617Z,97634.56
2023-01-18T00:49:05.312Z,97639.78
2023-01-18T00:54:06.929Z,97642.97
2023-01-18T00:59:08.594Z,97638.81
2023-01-18T01:04:29.136Z,97642.28
2023-01-18T01:09:30.846Z,97637.59
2023-01-18T01:14:56.284Z,97636.69
2023-01-18T01:20:16.485Z,97635.41
2023-01-18T01:25:36.813Z,97638.72
2023-01-18T01:30:38.511Z,97651.97
2023-01-18T01:35:40.255Z,97633.75
2023-01-18T01:40:41.871Z,97635.09
2023-01-18T01:45:43.528Z,97635.25
2023-01-18T01:50:45.234Z,97632.22
2023-01-18T01:55:47.017Z,97622.59
2023-01-18T02:00:48.761Z,97620.94
2023-01-18T02:05:53.704Z,97618.44
2023-01-18T02:10:55.348Z,97616.78
2023-01-18T02:16:09.818Z,97621.31
2023-01-18T02:21:19.422Z,97621.31
2023-01-18T02:26:51.263Z,97617.38
2023-01-18T02:32:21.678Z,97620.09
2023-01-18T02:37:48.486Z,97619.13
2023-01-18T02:43:08.709Z,97612.84
2023-01-18T02:48:10.478Z,97621.84
2023-01-18T02:53:15.338Z,97625.31
2023-01-18T02:58:22.895Z,97628.81
2023-01-18T03:03:25.073Z,97623.66
2023-01-18T03:08:38.515Z,97621.22
2023-01-18T03:13:56.693Z,97623.22
2023-01-18T03:19:04.230Z,97616.91
2023-01-18T03:24:07.428Z,97628.06
2023-01-18T03:29:28.077Z,97631.22
2023-01-18T03:34:34.998Z,97644.31
2023-01-18T03:39:43.123Z,97633.56
2023-01-18T03:44:52.664Z,97644.84
2023-01-18T03:49:54.419Z,97627.81
2023-01-18T03:54:59.295Z,97626.66
2023-01-18T04:00:02.016Z,97630.25
2023-01-18T04:05:14.646Z,97632.22
2023-01-18T04:10:16.406Z,97635.09
2023-01-18T04:15:18.092Z,97639.66
2023-01-18T04:20:20.273Z,97640.31
2023-01-18T04:25:22.118Z,97628.44
2023-01-18T04:30:23.747Z,97622.84
2023-01-18T04:35:25.399Z,97624.41
2023-01-18T04:40:27.072Z,97627.75
2023-01-18T04:45:28.672Z,97631.91
2023-01-18T04:50:30.315Z,97629.50
2023-01-18T04:55:33.539Z,97647.56
2023-01-18T05:00:35.191Z,97659.00
2023-01-18T05:05:36.877Z,97667.91
2023-01-18T05:10:38.481Z,97683.81
2023-01-18T05:15:40.106Z,97680.19
2023-01-18T05:20:41.773Z,97679.63
2023-01-18T05:25:43.464Z,97670.97
2023-01-18T05:30:45.152Z,97683.28
2023-01-18T05:35:51.863Z,97694.88
2023-01-18T05:40:54.821Z,97693.34
2023-01-18T05:45:57.223Z,97692.38
2023-01-18T05:50:58.908Z,97706.13
2023-01-18T05:56:02.764Z,97697.06
2023-01-18T06:01:04.559Z,97700.84
2023-01-18T06:06:06.758Z,97694.56
2023-01-18T06:11:09.791Z,97709.19
2023-01-18T06:16:12.101Z,97695.78
2023-01-18T06:21:14.235Z,97690.22
2023-01-18T06:26:15.882Z,97691.72
2023-01-18T06:31:17.528Z,97691.72
2023-01-18T06:36:19.186Z,97696.59
2023-01-18T06:41:20.836Z,97704.09
2023-01-18T06:46:22.507Z,97712.72
2023-01-18T06:51:24.166Z,97716.06
2023-01-18T06:56:26.870Z,97719.53
2023-01-18T07:01:28.701Z,97717.41
2023-01-18T07:06:30.695Z,97724.38
2023-01-18T07:11:32.370Z,97738.63
2023-01-18T07:16:34.108Z,97737.78
2023-01-18T07:21:35.847Z,97733.03
2023-01-18T07:26:37.622Z,97731.88
2023-01-18T07:31:40.630Z,97731.59
2023-01-18T07:36:42.340Z,97741.59
2023-01-18T07:41:44.004Z,97753.84
2023-01-18T07:46:45.867Z,97764.84
2023-01-18T07:51:47.575Z,97771.66
2023-01-18T07:56:49.209Z,97771.09
2023-01-18T08:01:50.856Z,97778.59
2023-01-18T08:06:52.590Z,97782.78
2023-01-18T08:11:54.242Z,97789.59
2023-01-18T08:16:55.882Z,97792.94
2023-01-18T08:21:57.821Z,97795.56
2023-01-18T08:26:59.443Z,97799.06
2023-01-18T08:32:02.439Z,97798.59
2023-01-18T08:37:04.065Z,97802.47
2023-01-18T08:42:05.712Z,97801.56
2023-01-18T08:47:07.368Z,97816.81
2023-01-18T08:52:11.107Z,97821.13
2023-01-18T08:57:12.784Z,97818.09
2023-01-18T09:02:14.633Z,97828.09
2023-01-18T09:07:17.468Z,97842.06
2023-01-18T09:12:19.435Z,97844.66
2023-01-18T09:17:21.542Z,97850.88
2023-01-18T09:22:24.239Z,97863.06
2023-01-18T09:27:25.872Z,97860.41
2023-01-18T09:32:27.644Z,97859.13
2023-01-18T09:37:29.580Z,97871.94
2023-01-18T09:42:36.953Z,97872.56
2023-01-18T09:47:43.589Z,97870.56
2023-01-18T09:53:17.124Z,97869.06
2023-01-18T10:05:21.184Z,97881.56
2023-01-18T10:10:22.839Z,97881.06
2023-01-18T10:15:26.750Z,97878.47
2023-01-18T10:20:47.584Z,97878.81
2023-01-18T10:25:54.403Z,97883.31
2023-01-18T10:31:17.331Z,97885.88
2023-01-18T10:36:32.833Z,97887.59
2023-01-18T10:41:38.580Z,97881.66
2023-01-18T10:46:40.221Z,97893.94
2023-01-18T10:51:41.866Z,97896.13
2023-01-18T10:56:44.399Z,97910.09
2023-01-18T11:01:55.117Z,97913.84
2023-01-18T11:06:59.688Z,97920.75
2023-01-18T11:12:41.460Z,97920.16
2023-01-18T11:18:03.330Z,97922.59
2023-01-18T11:23:10.971Z,97931.16
2023-01-18T11:28:45.882Z,97927.19
2023-01-18T11:33:55.452Z,97937.75
2023-01-18T11:39:18.365Z,97947.25
2023-01-18T11:44:19.962Z,97942.63
2023-01-18T11:49:29.365Z,97952.63
2023-01-18T11:54:38.105Z,97960.09
2023-01-18T11:59:49.136Z,97970.50
2023-01-18T12:05:22.589Z,97973.16
2023-01-18T12:10:26.413Z,97973.13
2023-01-18T12:15:52.384Z,97980.25
2023-01-18T12:21:24.561Z,97985.38
2023-01-18T12:26:49.370Z,97989.19
2023-01-18T12:31:58.843Z,97992.16
2023-01-18T12:37:13.350Z,98012.13
2023-01-18T12:42:52.587Z,98029.13
2023-01-18T12:48:12.994Z,98036.97
2023-01-18T12:53:20.682Z,98042.81
2023-01-18T12:58:25.195Z,98054.97
2023-01-18T13:03:31.236Z,98050.00
2023-01-18T13:08:44.800Z,98059.44
2023-01-18T13:13:49.126Z,98076.75
2023-01-18T13:19:00.884Z,98089.50
2023-01-18T13:24:24.500Z,98094.22
2023-01-18T13:29:30.425Z,98103.03
2023-01-18T13:34:32.883Z,98114.41
2023-01-18T13:39:44.353Z,98115.53
2023-01-18T13:44:49.926Z,98131.66
2023-01-18T13:49:51.620Z,98131.78
2023-01-18T13:54:56.928Z,98139.91
2023-01-18T14:00:00.065Z,98155.03
2023-01-18T14:05:07.850Z,98163.81
2023-01-18T14:10:33.095Z,98160.78
2023-01-18T14:15:44.054Z,98170.41
2023-01-18T14:21:00.915Z,98175.44
2023-01-18T14:26:07.915Z,98190.75
2023-01-18T14:31:16.824Z,98197.88
2023-01-18T14:36:29.041Z,98205.00
2023-01-18T14:41:31.398Z,98212.59
2023-01-18T14:46:33.111Z,98226.31
2023-01-18T14:51:35.062Z,98250.19
2023-01-18T14:56:41.147Z,98244.75
2023-01-18T15:01:54.776Z,98264.03
2023-01-18T15:06:59.838Z,98260.28
2023-01-18T15:12:04.698Z,98274.41
2023-01-18T15:17:08.930Z,98294.09
2023-01-18T15:22:16.240Z,98299.41
2023-01-18T15:27:18.944Z,98303.47
2023-01-18T15:32:25.465Z,98322.91
2023-01-18T15:37:33.565Z,98338.28
2023-01-18T15:42:44.301Z,98350.88
2023-01-18T15:47:52.311Z,98356.19
2023-01-18T15:53:06.056Z,98356.59
2023-01-18T15:58:13.557Z,98366.25
2023-01-18T16:03:30.224Z,98376.84
2023-01-18T16:08:32.725Z,98384.97
2023-01-18T16:13:36.993Z,98393.75
2023-01-18T16:18:38.695Z,98390.56
2023-01-18T16:23:43.507Z,98415.00
2023-01-18T16:28:45.317Z,98416.50
2023-01-18T16:33:47.443Z,98430.88
2023-01-18T16:38:49.073Z,98438.81
2023-01-18T16:43:52.110Z,98449.16
2023-01-18T16:48:53.777Z,98449.97
2023-01-18T16:53:55.514Z,98455.97
2023-01-18T16:58:57.374Z,98474.13
2023-01-18T17:03:59.013Z,98491.03
2023-01-18T17:09:00.722Z,98499.84
2023-01-18T17:14:02.363Z,98503.19
2023-01-18T17:19:03.991Z,98512.00
2023-01-18T17:24:05.977Z,98519.94
2023-01-18T17:29:08.334Z,98531.69
2023-01-18T17:34:11.839Z,98546.19
2023-01-18T17:39:15.050Z,98539.47
2023-01-18T17:44:17.308Z,98562.88
2023-01-18T17:49:18.984Z,98563.16
2023-01-18T17:54:21.148Z,98573.78
2023-01-18T17:59:22.811Z,98577.41
2023-01-18T18:04:24.437Z,98585.63
2023-01-18T18:09:26.091Z,98584.91
2023-01-18T18:14:27.787Z,98601.31
2023-01-18T18:19:29.493Z,98607.13
2023-01-18T18:24:31.139Z,98612.56
2023-01-18T18:29:33.200Z,98619.94
2023-01-18T18:34:35.631Z,98641.16
2023-01-18T18:39:37.361Z,98646.13
2023-01-18T18:44:38.963Z,98662.88
2023-01-18T18:49:40.683Z,98672.06
2023-01-18T18:54:42.299Z,98683.03
2023-01-18T18:59:44.083Z,98691.50
2023-01-18T19:04:45.699Z,98705.47
2023-01-18T19:09:47.367Z,98713.66
2023-01-18T19:14:49.408Z,98722.84
2023-01-18T19:19:51.057Z,98730.91
2023-01-18T19:24:52.720Z,98739.84
2023-01-18T19:29:56.885Z,98755.88
2023-01-18T19:34:58.501Z,98763.09
2023-01-18T19:40:00.138Z,98777.56
2023-01-18T19:45:03.906Z,98779.84
2023-01-18T19:50:06.737Z,98799.34
2023-01-18T19:55:08.803Z,98816.94
2023-01-18T20:00:11.226Z,98821.16
2023-01-18T20:05:15.463Z,98830.09
2023-01-18T20:10:20.171Z,98835.88
2023-01-18T20:15:23.290Z,98853.34
2023-01-18T20:20:32.536Z,98858.75
2023-01-18T20:25:34.604Z,98863.22
2023-01-18T20:30:36.515Z,98872.72
2023-01-18T20:35:38.305Z,98878.88
2023-01-18T20:40:40.430Z,98872.59
2023-01-18T20:45:42.061Z,98879.59
2023-01-18T20:50:43.738Z,98887.31
2023-01-18T20:55:45.626Z,98888.16
2023-01-18T21:00:47.397Z,98888.03
2023-01-18T21:05:49.039Z,98900.44
2023-01-18T21:10:51.441Z,98906.59
2023-01-18T21:16:00.831Z,98911.78
2023-01-18T21:21:02.444Z,98907.56
2023-01-18T21:26:04.085Z,98912.13
2023-01-18T21:31:06.319Z,98918.53
2023-01-18T21:36:11.788Z,98916.47
2023-01-18T21:41:32.086Z,98927.44
2023-01-18T21:46:33.734Z,98927.06
2023-01-18T21:51:54.095Z,98926.53
2023-01-18T21:56:55.845Z,98935.69
2023-01-18T22:01:57.569Z,98939.06
2023-01-18T22:06:59.773Z,98946.97
2023-01-18T22:12:01.585Z,98952.97
2023-01-18T22:17:03.681Z,98953.44
2023-01-18T22:22:05.339Z,98969.97
2023-01-18T22:27:07.688Z,98971.84
2023-01-18T22:32:09.385Z,98962.16
2023-01-18T22:37:11.020Z,98973.44
2023-01-18T22:42:12.669Z,98974.31
2023-01-18T22:47:14.318Z,98981.41
2023-01-18T22:52:16.000Z,98984.63
2023-01-18T22:57:17.629Z,98979.34
2023-01-18T23:02:19.241Z,98993.22
2023-01-18T23:07:20.913Z,98993.22
2023-01-18T23:12:22.633Z,99001.16
2023-01-18T23:17:39.248Z,99015.13
2023-01-18T23:22:40.861Z,99024.34
2023-01-18T23:27:42.550Z,99030.97
2023-01-18T23:32:44.181Z,99034.72
2023-01-18T23:37:45.785Z,99035.84
2023-01-18T23:43:06.208Z,99036.69
2023-01-18T23:48:30.060Z,99056.47
2023-01-18T23:53:50.406Z,99069.78
2023-01-18T23:58:52.045Z,99074.00
